Time;durP1;ratioP1;P1;durP2;ratioP2;P2;SDS_P1;SDS_P2;PMS_P1;PMS_P2;Temp;Humidity;BMP_temperature;BMP_pressure;BME280_temperature;BME280_humidity;BME280_pressure;Samples;Min_cycle;Max_cycle;Signal;HPM_P1;HPM_P2
2022/05/08 00:01:04;;;;;;;6.95;3.58;;;;;;;11.33;47.60;95438.38;5059776;28;20035;-75
2022/05/08 00:03:30;;;;;;;4.82;4.10;;;;;;;11.30;47.70;95441.41;5058062;28;20043;-75
2022/05/08 00:05:55;;;;;;;11.73;4.38;;;;;;;11.32;47.11;95434.16;5058469;28;20036;-76
2022/05/08 00:08:38;;;;;;;5.53;3.78;;;;;;;11.25;46.99;95438.69;5059019;28;20036;-76
2022/05/08 00:11:04;;;;;;;8.88;4.20;;;;;;;11.15;47.42;95438.41;5060249;28;20033;-75
2022/05/08 00:13:31;;;;;;;13.45;3.80;;;;;;;11.07;47.58;95436.13;5059414;28;20028;-76
2022/05/08 00:15:57;;;;;;;4.40;4.00;;;;;;;11.06;47.16;95430.13;5058645;28;20039;-75
2022/05/08 00:18:23;;;;;;;15.95;4.03;;;;;;;11.15;47.26;95435.00;5059036;28;20041;-75
2022/05/08 00:20:48;;;;;;;8.02;3.58;;;;;;;11.14;47.14;95442.03;5058395;28;20116;-75
2022/05/08 00:23:14;;;;;;;6.07;3.60;;;;;;;11.08;47.47;95438.50;5058654;28;20033;-75
2022/05/08 00:25:39;;;;;;;11.70;4.10;;;;;;;11.07;48.06;95436.13;5058247;28;20032;-76
2022/05/08 00:28:05;;;;;;;7.43;3.95;;;;;;;11.09;47.81;95437.47;5057197;28;20044;-75
2022/05/08 00:30:30;;;;;;;10.95;4.32;;;;;;;11.15;47.83;95441.00;5058508;28;20035;-76
2022/05/08 00:32:55;;;;;;;12.15;3.33;;;;;;;11.20;47.50;95435.13;5060038;28;20039;-76
2022/05/08 00:35:21;;;;;;;5.38;3.65;;;;;;;11.20;47.49;95442.94;5060377;28;20040;-76
2022/05/08 00:37:46;;;;;;;6.43;3.40;;;;;;;11.13;47.16;95440.44;5041551;28;20078;-76
2022/05/08 00:40:12;;;;;;;10.38;3.50;;;;;;;11.05;46.91;95438.13;5059457;28;20044;-74
2022/05/08 00:42:38;;;;;;;8.30;3.63;;;;;;;11.10;48.03;95436.47;5059456;28;20427;-76
2022/05/08 00:45:04;;;;;;;10.43;3.90;;;;;;;11.10;47.87;95435.66;5058215;28;20094;-75
2022/05/08 00:47:30;;;;;;;26.90;4.07;;;;;;;11.04;47.42;95441.72;5041556;28;20025;-76
2022/05/08 00:49:56;;;;;;;8.82;3.75;;;;;;;10.88;47.65;95437.13;5057662;28;20576;-76
2022/05/08 00:52:21;;;;;;;14.65;4.18;;;;;;;10.75;48.75;95441.47;5042140;28;20052;-76
2022/05/08 00:54:47;;;;;;;8.07;4.05;;;;;;;10.76;48.02;95437.88;5049518;28;20037;-76
2022/05/08 00:57:12;;;;;;;10.55;4.40;;;;;;;10.76;47.41;95440.47;5057604;28;20036;-76
2022/05/08 00:59:38;;;;;;;18.17;3.97;;;;;;;10.80;48.10;95431.22;5058682;28;20035;-75
2022/05/08 01:02:03;;;;;;;12.63;3.95;;;;;;;10.78;47.73;95432.44;5039277;28;20086;-76
2022/05/08 01:04:30;;;;;;;15.13;4.13;;;;;;;10.85;47.16;95432.34;5080122;28;20392;-76
2022/05/08 01:06:55;;;;;;;11.70;3.92;;;;;;;10.88;47.25;95432.72;5070577;28;20037;-75
2022/05/08 01:09:21;;;;;;;19.38;4.78;;;;;;;10.88;47.41;95437.13;5058256;28;20052;-75
2022/05/08 01:11:46;;;;;;;7.22;3.65;;;;;;;10.85;47.11;95435.75;5058862;28;20039;-75
2022/05/08 01:14:13;;;;;;;10.35;3.55;;;;;;;10.82;46.95;95429.19;5059009;28;20033;-75
2022/05/08 01:16:44;;;;;;;7.50;3.83;;;;;;;10.84;47.08;95441.97;5040372;28;20056;-75
2022/05/08 01:19:10;;;;;;;8.18;3.35;;;;;;;10.90;47.16;95435.09;5041892;28;20029;-75
2022/05/08 01:21:41;;;;;;;5.25;4.47;;;;;;;10.95;47.53;95432.66;5059027;28;20044;-75
2022/05/08 01:24:10;;;;;;;9.98;4.20;;;;;;;11.01;47.79;95436.97;5058420;28;20492;-75
2022/05/08 01:26:36;;;;;;;7.47;4.00;;;;;;;11.02;47.41;95433.34;5040300;28;20028;-76
2022/05/08 01:29:01;;;;;;;5.43;4.40;;;;;;;11.04;47.13;95431.31;5066089;28;20074;-76
2022/05/08 01:31:27;;;;;;;13.18;4.38;;;;;;;11.06;47.42;95434.50;5066137;28;20032;-75
2022/05/08 01:33:52;;;;;;;6.20;3.83;;;;;;;11.05;47.21;95432.91;5064746;28;20044;-75
2022/05/08 01:36:18;;;;;;;7.45;4.28;;;;;;;11.01;46.64;95426.56;5060740;28;20634;-75
2022/05/08 01:38:43;;;;;;;7.95;4.57;;;;;;;11.00;46.98;95424.97;5044409;28;20029;-76
2022/05/08 01:41:09;;;;;;;8.95;3.80;;;;;;;10.98;47.71;95424.41;5060896;28;20029;-75
2022/05/08 01:43:37;;;;;;;6.78;3.80;;;;;;;10.89;47.26;95415.28;5060763;28;20620;-76
2022/05/08 01:46:06;;;;;;;14.75;4.05;;;;;;;10.78;47.43;95422.84;5036182;28;20036;-75
2022/05/08 01:48:32;;;;;;;8.82;4.28;;;;;;;10.68;48.04;95416.53;5060832;28;20041;-75
2022/05/08 01:50:58;;;;;;;7.68;4.47;;;;;;;10.64;47.59;95421.38;5061138;28;20029;-76
2022/05/08 01:53:25;;;;;;;8.77;4.25;;;;;;;10.55;47.96;95420.06;5060582;28;20033;-76
2022/05/08 01:55:55;;;;;;;7.18;3.90;;;;;;;10.41;47.51;95416.84;5059297;28;20047;-76
2022/05/08 01:58:21;;;;;;;5.80;4.30;;;;;;;10.19;47.66;95418.19;5028616;28;20437;-75
2022/05/08 02:00:46;;;;;;;11.35;4.10;;;;;;;10.13;48.06;95416.47;5061723;28;20027;-75
2022/05/08 02:03:12;;;;;;;6.95;4.15;;;;;;;10.15;47.55;95415.25;5060604;28;20033;-76
2022/05/08 02:05:39;;;;;;;9.23;4.07;;;;;;;10.08;47.45;95416.28;5042410;28;20033;-75
2022/05/08 02:08:17;;;;;;;4.43;4.00;;;;;;;10.02;48.22;95417.16;5059806;28;20045;-76
2022/05/08 02:10:43;;;;;;;7.45;4.15;;;;;;;9.95;47.65;95419.81;5043416;28;20048;-75
2022/05/08 02:13:08;;;;;;;8.82;4.15;;;;;;;9.84;47.65;95407.50;5062465;28;20036;-75
2022/05/08 02:15:34;;;;;;;5.93;3.95;;;;;;;9.77;47.57;95417.16;5060556;28;20078;-74
2022/05/08 02:18:06;;;;;;;10.80;4.78;;;;;;;9.74;47.55;95417.56;5062131;28;20033;-75
2022/05/08 02:20:46;;;;;;;6.63;3.92;;;;;;;9.64;47.12;95420.66;5059919;28;20025;-76
2022/05/08 02:23:12;;;;;;;9.73;4.38;;;;;;;9.67;47.86;95411.66;5027188;28;20121;-76
2022/05/08 02:25:37;;;;;;;9.25;4.55;;;;;;;9.72;47.89;95417.78;5061933;28;20526;-76
2022/05/08 02:28:03;;;;;;;8.10;4.03;;;;;;;9.75;47.44;95408.78;5043820;28;20037;-74
2022/05/08 02:30:28;;;;;;;12.05;3.75;;;;;;;9.79;47.34;95404.78;5060713;28;20025;-74
2022/05/08 02:33:05;;;;;;;7.15;4.32;;;;;;;9.75;46.87;95400.97;5061655;28;20037;-76
2022/05/08 02:35:31;;;;;;;4.65;3.90;;;;;;;9.85;46.85;95411.69;5004333;28;20049;-75
2022/05/08 02:37:56;;;;;;;4.90;4.28;;;;;;;9.86;47.15;95410.69;5020308;28;20038;-75
2022/05/08 02:40:25;;;;;;;14.77;4.55;;;;;;;9.96;48.16;95418.81;5019583;28;20030;-75
2022/05/08 02:42:50;;;;;;;13.43;5.13;;;;;;;9.96;47.38;95412.81;5018481;28;20041;-75
2022/05/08 02:45:16;;;;;;;12.30;5.28;;;;;;;10.00;46.86;95411.38;5002377;28;20072;-74
2022/05/08 02:47:41;;;;;;;5.47;4.70;;;;;;;10.06;46.37;95408.72;5001919;28;20061;-75
2022/05/08 02:50:09;;;;;;;12.65;5.47;;;;;;;10.13;45.96;95413.88;5002389;28;20522;-75
2022/05/08 02:52:35;;;;;;;12.45;4.40;;;;;;;10.12;45.91;95413.06;5018306;28;20468;-74
2022/05/08 02:58:32;;;;;;;20.17;5.47;;;;;;;10.07;45.23;95412.09;5001464;28;20072;-76
2022/05/08 03:00:33;;;;;;;7.20;4.65;;;;;;;9.92;44.85;95417.63;5059263;28;20530;-75
2022/05/08 03:02:59;;;;;;;6.97;4.95;;;;;;;9.76;45.39;95418.16;5042317;28;20029;-75
2022/05/08 03:05:24;;;;;;;9.23;5.90;;;;;;;9.65;45.70;95417.06;5059600;28;20039;-75
2022/05/08 03:07:50;;;;;;;21.67;4.93;;;;;;;9.64;45.81;95420.66;5059999;28;20066;-75
2022/05/08 03:10:15;;;;;;;9.93;5.60;;;;;;;9.65;45.42;95418.84;5059290;28;20041;-76
2022/05/08 03:12:44;;;;;;;8.05;4.70;;;;;;;9.55;46.22;95417.50;5060749;28;20078;-75
2022/05/08 03:15:10;;;;;;;9.65;4.60;;;;;;;9.51;46.19;95425.94;5059691;28;20013;-75
2022/05/08 03:17:36;;;;;;;5.13;4.63;;;;;;;9.50;45.82;95427.72;5033560;28;20516;-75
2022/05/08 03:20:02;;;;;;;8.48;4.88;;;;;;;9.46;46.09;95421.38;5060391;28;20033;-75
2022/05/08 03:22:27;;;;;;;10.40;4.90;;;;;;;9.50;46.01;95419.16;5060236;28;20029;-76
2022/05/08 03:24:53;;;;;;;11.07;5.55;;;;;;;9.62;46.37;95433.06;5060586;28;20020;-75
2022/05/08 03:27:19;;;;;;;6.28;5.00;;;;;;;9.60;46.21;95424.69;5060740;28;20040;-76
2022/05/08 03:29:44;;;;;;;9.52;5.90;;;;;;;9.60;46.03;95433.28;5060244;28;20033;-75
2022/05/08 03:32:10;;;;;;;6.68;4.95;;;;;;;9.68;46.02;95429.59;5034101;28;20461;-76
2022/05/08 03:34:35;;;;;;;6.72;4.85;;;;;;;9.72;45.83;95430.78;5052013;28;20033;-76
2022/05/08 03:37:01;;;;;;;10.85;4.90;;;;;;;9.79;45.28;95426.34;5049242;28;20033;-75
2022/05/08 03:39:26;;;;;;;8.35;4.97;;;;;;;9.73;45.38;95434.97;5061443;28;20045;-76
2022/05/08 03:41:51;;;;;;;8.98;4.35;;;;;;;9.84;45.55;95436.09;5058159;28;20029;-75
2022/05/08 03:44:17;;;;;;;9.40;4.50;;;;;;;9.92;45.03;95434.03;5042086;28;20071;-76
2022/05/08 03:46:42;;;;;;;5.63;4.78;;;;;;;10.08;44.67;95437.88;5060925;28;20040;-76
2022/05/08 03:49:08;;;;;;;8.82;4.30;;;;;;;10.19;44.44;95439.00;5058393;28;20036;-76
2022/05/08 03:51:33;;;;;;;9.68;4.68;;;;;;;10.28;44.20;95436.97;5059728;28;20563;-76
2022/05/08 03:53:59;;;;;;;10.15;4.97;;;;;;;10.39;43.89;95444.84;5060324;28;20036;-75
2022/05/08 03:56:24;;;;;;;14.90;5.32;;;;;;;10.56;43.68;95441.66;5061655;28;20033;-76
2022/05/08 03:58:49;;;;;;;24.25;13.40;;;;;;;10.69;43.11;95434.53;5060411;28;20032;-76
2022/05/08 04:01:15;;;;;;;19.05;6.32;;;;;;;10.93;43.48;95440.69;5044822;28;20033;-75
2022/05/08 04:03:41;;;;;;;14.98;5.47;;;;;;;11.18;45.46;95445.75;5059813;28;20499;-75
2022/05/08 04:06:06;;;;;;;13.70;6.13;;;;;;;12.44;43.57;95434.28;5060930;28;20044;-76
2022/05/08 04:08:33;;;;;;;18.95;5.53;;;;;;;14.56;39.19;95437.59;5041093;28;20040;-76
2022/05/08 04:10:58;;;;;;;10.77;4.28;;;;;;;16.48;34.37;95438.00;5057932;28;20507;-76
2022/05/08 04:13:23;;;;;;;20.60;5.70;;;;;;;18.35;31.63;95423.81;5057837;28;20029;-76
2022/05/08 04:18:33;;;;;;;24.30;8.35;;;;;;;21.78;27.21;95427.84;5044559;28;20055;-76
2022/05/08 04:20:58;;;;;;;30.35;6.93;;;;;;;23.17;25.47;95430.56;5059290;28;20021;-76
2022/05/08 04:26:07;;;;;;;17.00;5.20;;;;;;;26.15;21.59;95430.41;5059064;28;20062;-76
2022/05/08 04:28:33;;;;;;;11.55;4.75;;;;;;;27.29;19.14;95424.44;5058221;28;20485;-76
2022/05/08 04:30:58;;;;;;;9.52;4.47;;;;;;;28.49;18.45;95435.34;5059255;28;20037;-76
2022/05/08 04:33:24;;;;;;;12.32;4.22;;;;;;;29.31;17.27;95437.25;5059611;28;20029;-77
2022/05/08 04:35:49;;;;;;;7.20;3.35;;;;;;;30.10;15.83;95435.78;5059180;28;20531;-76
2022/05/08 04:38:15;;;;;;;7.80;3.47;;;;;;;30.82;15.27;95428.53;5058318;28;20067;-76
2022/05/08 04:40:41;;;;;;;8.35;3.65;;;;;;;31.70;15.08;95439.03;5057441;28;20036;-77
2022/05/08 04:43:07;;;;;;;6.53;2.92;;;;;;;32.13;13.47;95438.81;5057255;28;20036;-77
2022/05/08 04:45:32;;;;;;;9.50;3.13;;;;;;;32.44;12.78;95440.59;5041551;28;20508;-77
2022/05/08 04:47:58;;;;;;;14.43;3.47;;;;;;;32.13;12.63;95432.66;5058271;28;20036;-77
2022/05/08 04:50:23;;;;;;;5.05;2.90;;;;;;;32.39;12.14;95437.44;5058443;28;20480;-77
2022/05/08 04:52:48;;;;;;;5.72;3.13;;;;;;;32.88;11.87;95436.78;5042564;28;20037;-77
2022/05/08 04:55:14;;;;;;;5.45;2.78;;;;;;;33.51;11.18;95438.94;5040908;28;20499;-77
2022/05/08 04:57:39;;;;;;;9.02;3.10;;;;;;;33.81;11.03;95439.72;5058938;28;20086;-77
2022/05/08 05:00:05;;;;;;;8.73;3.10;;;;;;;34.66;11.16;95439.22;5058191;28;20037;-77
2022/05/08 05:02:31;;;;;;;6.38;3.05;;;;;;;35.72;10.53;95433.91;5058690;28;20029;-77
2022/05/08 05:04:57;;;;;;;9.02;3.00;;;;;;;36.36;9.53;95439.66;5059142;28;20029;-77
2022/05/08 05:07:23;;;;;;;6.63;3.33;;;;;;;36.37;9.75;95435.81;5044677;28;20079;-77
2022/05/08 05:09:48;;;;;;;6.30;2.72;;;;;;;37.00;8.89;95444.47;5061042;28;20029;-77
2022/05/08 05:12:14;;;;;;;3.92;2.58;;;;;;;37.22;9.15;95440.56;5061655;28;20031;-76
2022/05/08 05:14:39;;;;;;;9.98;2.63;;;;;;;37.75;8.96;95445.19;5061034;28;20055;-76
2022/05/08 05:17:05;;;;;;;7.65;2.70;;;;;;;37.95;8.36;95438.19;5060774;28;20063;-77
2022/05/08 05:19:30;;;;;;;8.95;2.75;;;;;;;38.58;8.43;95439.09;5062903;28;20040;-77
2022/05/08 05:21:56;;;;;;;5.82;2.55;;;;;;;38.44;8.00;95447.31;5061234;28;20041;-76
2022/05/08 05:24:21;;;;;;;5.05;2.50;;;;;;;38.50;7.93;95434.84;5052624;28;20467;-77
2022/05/08 05:26:47;;;;;;;5.80;2.72;;;;;;;39.13;8.08;95438.34;5062350;28;20032;-76
2022/05/08 05:29:14;;;;;;;7.35;2.50;;;;;;;39.36;7.79;95439.69;5062018;28;20424;-77
2022/05/08 05:31:40;;;;;;;7.03;2.70;;;;;;;40.13;7.85;95434.66;5060871;28;20033;-76
2022/05/08 05:34:05;;;;;;;6.20;2.83;;;;;;;40.64;6.98;95438.31;5060107;28;20047;-76
2022/05/08 05:36:31;;;;;;;9.48;2.80;;;;;;;41.27;6.98;95436.59;5060922;28;20040;-77
2022/05/08 05:38:56;;;;;;;5.10;2.28;;;;;;;41.46;7.12;95431.59;5062480;28;20041;-76
2022/05/08 05:41:21;;;;;;;8.93;2.63;;;;;;;40.71;6.90;95435.50;5062748;28;20040;-77
2022/05/08 05:43:47;;;;;;;6.47;2.30;;;;;;;41.33;7.23;95440.41;5035248;28;20040;-76
2022/05/08 05:48:57;;;;;;;6.85;2.78;;;;;;;42.84;6.05;95439.03;5061174;28;20048;-77
2022/05/08 05:51:22;;;;;;;6.45;2.63;;;;;;;43.23;5.86;95432.63;5061012;28;20073;-78
2022/05/08 05:53:47;;;;;;;7.28;2.35;;;;;;;42.37;5.66;95441.22;5061858;28;20021;-76
2022/05/08 05:56:13;;;;;;;4.85;2.47;;;;;;;42.60;5.88;95437.59;5061169;28;20656;-76
2022/05/08 05:58:38;;;;;;;12.70;2.75;;;;;;;43.03;6.12;95423.75;5061093;28;20033;-76
2022/05/08 06:01:04;;;;;;;5.13;2.35;;;;;;;43.50;5.84;95428.84;5060920;28;20040;-77
2022/05/08 06:03:29;;;;;;;6.75;2.60;;;;;;;43.35;5.79;95429.22;5069945;28;20033;-77
2022/05/08 06:05:55;;;;;;;9.07;2.60;;;;;;;43.29;5.89;95419.97;5069992;28;20037;-77
2022/05/08 06:08:20;;;;;;;7.22;2.80;;;;;;;43.52;5.77;95426.44;5063499;28;20029;-77
2022/05/08 06:10:45;;;;;;;4.57;2.10;;;;;;;43.21;5.76;95421.34;5060385;28;20036;-77
2022/05/08 06:13:12;;;;;;;3.35;2.28;;;;;;;43.59;5.51;95427.03;5062434;28;20045;-77
2022/05/08 06:15:38;;;;;;;8.55;2.58;;;;;;;43.27;5.90;95427.81;5044484;28;20107;-77
2022/05/08 06:18:03;;;;;;;9.45;2.75;;;;;;;42.76;5.65;95424.72;5043066;28;20564;-77
2022/05/08 06:20:29;;;;;;;3.70;2.60;;;;;;;41.77;6.14;95422.06;5063001;28;20040;-76
2022/05/08 06:22:55;;;;;;;7.80;2.33;;;;;;;40.98;6.79;95427.28;5036282;28;20040;-78
2022/05/08 06:25:20;;;;;;;7.55;2.78;;;;;;;40.22;7.43;95415.88;5065541;28;20021;-79
2022/05/08 06:27:46;;;;;;;5.88;2.50;;;;;;;40.05;7.57;95419.59;5079195;28;20040;-79
2022/05/08 06:30:12;;;;;;;7.90;2.25;;;;;;;39.58;7.80;95417.38;5069562;28;20060;-78
2022/05/08 06:32:37;;;;;;;10.40;4.90;;;;;;;38.87;8.22;95414.44;5064814;28;20029;-77
2022/05/08 06:35:03;;;;;;;8.07;3.08;;;;;;;37.71;8.30;95411.84;5062030;28;20060;-78
2022/05/08 06:37:29;;;;;;;9.30;2.47;;;;;;;36.68;9.67;95420.78;5063291;28;20037;-79
2022/05/08 06:39:54;;;;;;;9.02;2.40;;;;;;;34.49;10.21;95408.97;5042856;28;20033;-78
2022/05/08 06:42:20;;;;;;;9.65;2.80;;;;;;;33.80;10.94;95405.81;5059941;28;20474;-79
2022/05/08 06:44:45;;;;;;;10.20;2.80;;;;;;;33.12;11.14;95409.44;5044984;28;20096;-78
2022/05/08 06:47:11;;;;;;;4.85;3.00;;;;;;;32.65;11.54;95413.25;5063686;28;20044;-77
2022/05/08 06:49:36;;;;;;;4.50;2.40;;;;;;;32.05;11.97;95412.88;5064674;28;20431;-77
2022/05/08 06:52:02;;;;;;;12.60;2.75;;;;;;;31.45;12.89;95409.69;5063550;28;20036;-78
2022/05/08 06:54:28;;;;;;;7.18;2.75;;;;;;;30.98;13.43;95410.50;5062166;28;20400;-77
2022/05/08 06:56:55;;;;;;;29.00;3.47;;;;;;;30.31;13.29;95404.19;5046431;28;20117;-78
2022/05/08 07:02:05;;;;;;;4.93;2.92;;;;;;;29.33;14.74;95397.53;5062733;28;20086;-76
2022/05/08 07:04:30;;;;;;;15.35;3.75;;;;;;;28.88;14.63;95398.41;5061780;28;20032;-76
2022/05/08 07:06:56;;;;;;;10.05;2.88;;;;;;;28.37;15.47;95400.53;5063487;28;20218;-78
2022/05/08 07:09:22;;;;;;;6.88;3.80;;;;;;;28.04;15.49;95408.53;5030154;28;20052;-77
2022/05/08 07:11:47;;;;;;;15.18;3.42;;;;;;;27.62;16.42;95402.38;5064993;28;20048;-77
2022/05/08 07:14:14;;;;;;;8.80;3.13;;;;;;;27.16;16.40;95401.41;5051269;28;20033;-78
2022/05/08 07:16:40;;;;;;;7.47;3.50;;;;;;;26.78;16.75;95396.84;5049857;28;20037;-80
2022/05/08 07:19:05;;;;;;;7.85;3.55;;;;;;;26.34;17.27;95396.16;5061430;28;20070;-78
2022/05/08 07:21:31;;;;;;;11.70;3.83;;;;;;;25.96;17.82;95392.63;5062899;28;20047;-79
2022/05/08 07:23:56;;;;;;;8.65;3.20;;;;;;;25.46;18.46;95406.38;5044982;28;20064;-80
2022/05/08 07:26:22;;;;;;;7.10;3.75;;;;;;;25.36;18.73;95394.13;5063132;28;20059;-79
2022/05/08 07:28:47;;;;;;;11.07;3.13;;;;;;;25.27;18.82;95392.56;5052762;28;20087;-79
2022/05/08 07:31:13;;;;;;;3.20;2.88;;;;;;;25.13;19.18;95398.81;5035933;28;20035;-79
2022/05/08 07:33:39;;;;;;;12.23;3.40;;;;;;;24.90;19.59;95397.31;5061366;28;20459;-78
2022/05/08 07:36:14;;;;;;;18.63;4.53;;;;;;;24.81;20.12;95385.84;5044371;28;20037;-79
2022/05/08 07:38:43;;;;;;;13.02;3.72;;;;;;;24.48;20.10;95388.81;5044862;28;20051;-79
2022/05/08 07:41:10;;;;;;;6.53;3.17;;;;;;;24.34;20.06;95393.44;5045547;28;20412;-79
2022/05/08 07:43:36;;;;;;;7.35;3.70;;;;;;;24.25;20.31;95389.94;5044778;28;20041;-79
2022/05/08 07:46:23;;;;;;;13.73;3.58;;;;;;;23.67;20.58;95385.47;5030937;28;20033;-79
2022/05/08 07:48:49;;;;;;;18.58;3.47;;;;;;;23.46;21.47;95392.28;5061867;28;20404;-78
2022/05/08 07:51:15;;;;;;;11.10;4.20;;;;;;;23.49;21.55;95389.81;5033825;28;20507;-79
2022/05/08 07:53:41;;;;;;;7.03;3.53;;;;;;;23.43;21.44;95387.53;5049554;28;20025;-79
2022/05/08 07:56:06;;;;;;;5.95;3.25;;;;;;;23.29;21.42;95377.75;5060131;28;20048;-79
2022/05/08 07:58:32;;;;;;;7.25;3.25;;;;;;;23.20;22.06;95387.50;5065489;28;20033;-79
2022/05/08 08:00:58;;;;;;;11.02;3.40;;;;;;;23.21;21.59;95378.47;5051795;28;20494;-78
2022/05/08 08:03:25;;;;;;;10.18;3.17;;;;;;;23.14;21.94;95382.59;5054864;28;20037;-79
2022/05/08 08:05:52;;;;;;;7.35;3.55;;;;;;;22.71;22.77;95374.94;5074052;28;20032;-79
2022/05/08 08:08:21;;;;;;;13.73;3.58;;;;;;;22.48;22.96;95382.00;5071558;28;20066;-78
2022/05/08 08:10:46;;;;;;;5.72;3.35;;;;;;;22.40;23.27;95372.84;5069294;28;20041;-78
2022/05/08 08:13:12;;;;;;;9.70;4.25;;;;;;;22.02;23.41;95371.34;5066448;28;20033;-79
2022/05/08 08:15:38;;;;;;;3.78;3.10;;;;;;;22.01;23.42;95369.78;5062854;28;20503;-79
2022/05/08 08:18:04;;;;;;;11.75;3.70;;;;;;;21.94;24.42;95372.78;5062028;28;20032;-79
2022/05/08 08:20:29;;;;;;;5.18;3.55;;;;;;;21.91;23.90;95372.59;5062241;28;20517;-79
2022/05/08 08:22:55;;;;;;;6.63;4.13;;;;;;;21.90;23.83;95371.81;5063871;28;20199;-79
2022/05/08 08:25:20;;;;;;;8.05;3.53;;;;;;;22.03;24.17;95365.75;5061010;28;20041;-79
2022/05/08 08:27:46;;;;;;;16.08;3.80;;;;;;;22.22;23.92;95363.09;5062554;28;20036;-79
2022/05/08 08:30:13;;;;;;;12.80;3.92;;;;;;;22.34;23.72;95365.28;5043730;28;20124;-79
2022/05/08 08:32:39;;;;;;;5.75;3.40;;;;;;;22.39;23.72;95367.81;5050041;28;20099;-79
2022/05/08 08:35:05;;;;;;;3.90;3.33;;;;;;;22.26;24.25;95360.63;5051927;28;20040;-79
2022/05/08 08:37:31;;;;;;;11.57;4.35;;;;;;;22.24;24.10;95349.56;5044289;28;20098;-78
2022/05/08 08:39:56;;;;;;;8.48;3.33;;;;;;;22.34;24.34;95352.03;5059902;28;20029;-78
2022/05/08 08:42:27;;;;;;;10.18;5.18;;;;;;;22.28;24.08;95345.22;5041655;28;20028;-78
2022/05/08 08:47:56;;;;;;;9.70;4.30;;;;;;;21.91;24.55;95351.41;5054070;28;20124;-80
2022/05/08 08:50:23;;;;;;;8.38;3.45;;;;;;;21.75;24.01;95350.84;5045008;28;20166;-79
2022/05/08 08:52:48;;;;;;;7.03;3.88;;;;;;;21.68;24.21;95350.44;5058270;28;20063;-78
2022/05/08 08:55:17;;;;;;;5.05;3.10;;;;;;;21.59;24.37;95347.66;5061656;28;20045;-78
2022/05/08 08:57:45;;;;;;;14.73;3.50;;;;;;;21.70;24.70;95341.16;5033021;28;20025;-79
2022/05/08 09:00:11;;;;;;;5.53;3.05;;;;;;;21.63;24.27;95350.50;5046162;28;20126;-78
2022/05/08 09:02:37;;;;;;;3.60;2.97;;;;;;;21.52;24.33;95339.31;5044450;28;20028;-78
2022/05/08 09:05:07;;;;;;;7.75;3.00;;;;;;;21.62;24.14;95343.66;5044981;28;20097;-79
2022/05/08 09:07:39;;;;;;;5.85;3.15;;;;;;;21.66;24.23;95349.97;5047072;28;20064;-78
2022/05/08 09:10:08;;;;;;;9.57;3.22;;;;;;;21.53;24.10;95346.97;5062854;28;20036;-78
2022/05/08 09:12:34;;;;;;;11.63;3.15;;;;;;;21.58;23.75;95328.34;5064752;28;20099;-78
2022/05/08 09:14:59;;;;;;;7.95;3.40;;;;;;;21.53;24.83;95332.94;5067320;28;20031;-79
2022/05/08 09:17:41;;;;;;;11.25;3.30;;;;;;;21.51;24.12;95327.16;5060125;28;20033;-79
2022/05/08 09:20:12;;;;;;;7.07;2.70;;;;;;;21.52;24.13;95324.22;5062567;28;20039;-78
2022/05/08 09:22:37;;;;;;;6.15;3.20;;;;;;;21.41;24.73;95320.13;5049157;28;20051;-78
2022/05/08 09:25:04;;;;;;;10.75;3.67;;;;;;;21.42;25.00;95327.00;5066064;28;20045;-78
2022/05/08 09:27:29;;;;;;;8.63;3.67;;;;;;;21.39;24.86;95318.84;5050244;28;20036;-78
2022/05/08 09:30:06;;;;;;;10.27;3.95;;;;;;;21.54;25.46;95324.72;5066029;28;20447;-78
2022/05/08 09:32:36;;;;;;;6.78;3.55;;;;;;;21.05;26.16;95313.75;5044091;28;20415;-78
2022/05/08 09:35:02;;;;;;;7.53;3.83;;;;;;;21.06;26.39;95315.31;5062467;28;20048;-78
2022/05/08 09:37:27;;;;;;;8.48;3.38;;;;;;;20.98;26.50;95320.16;5062699;28;20041;-78
2022/05/08 09:40:16;;;;;;;6.95;3.47;;;;;;;20.74;25.05;95318.66;5046869;28;20101;-78
2022/05/08 09:42:42;;;;;;;4.05;3.03;;;;;;;20.58;25.64;95310.13;5062190;28;20033;-78
2022/05/08 09:45:08;;;;;;;16.63;3.50;;;;;;;20.77;25.67;95305.66;5061335;28;20103;-79
2022/05/08 09:47:42;;;;;;;8.95;2.90;;;;;;;20.90;25.00;95302.31;5059766;28;20936;-78
2022/05/08 09:50:09;;;;;;;4.88;2.80;;;;;;;21.01;22.96;95307.47;5045190;28;20044;-78
2022/05/08 09:52:36;;;;;;;9.52;3.10;;;;;;;20.78;23.44;95303.78;5045212;28;20028;-78
2022/05/08 09:55:02;;;;;;;7.15;3.53;;;;;;;20.65;25.07;95300.75;5047460;28;20028;-79
2022/05/08 09:57:27;;;;;;;5.15;2.17;;;;;;;20.63;21.82;95302.13;5064270;28;20139;-78
2022/05/08 09:59:53;;;;;;;3.05;2.15;;;;;;;20.65;20.64;95295.47;5044880;28;20452;-78
2022/05/08 10:02:19;;;;;;;8.10;2.70;;;;;;;20.57;21.82;95284.75;5062124;28;20495;-78
2022/05/08 10:04:44;;;;;;;8.88;2.60;;;;;;;20.61;21.34;95291.03;5027334;28;20040;-78
2022/05/08 10:07:12;;;;;;;13.98;2.10;;;;;;;20.32;17.00;95286.59;5060245;28;20039;-78
2022/05/08 10:15:19;;;;;;;1.30;1.20;;;;;;;20.13;13.58;95272.53;5065948;28;20052;-81
2022/05/08 10:17:45;;;;;;;2.10;1.90;;;;;;;20.06;15.41;95278.16;5069899;28;20032;-80
2022/05/08 10:20:10;;;;;;;2.38;2.08;;;;;;;20.16;17.68;95268.53;5054860;28;20040;-79
2022/05/08 10:22:46;;;;;;;2.83;1.83;;;;;;;20.05;16.54;95270.53;5095749;23;20052;-80
2022/05/08 10:25:15;;;;;;;1.58;1.48;;;;;;;20.03;16.51;95262.88;5091349;28;20043;-80
2022/05/08 10:27:41;;;;;;;4.75;1.70;;;;;;;19.95;17.49;95273.25;5073927;28;20037;-81
2022/05/08 10:30:06;;;;;;;3.33;2.25;;;;;;;20.01;18.77;95262.38;5059456;28;20055;-80
2022/05/08 10:32:32;;;;;;;3.08;2.45;;;;;;;20.14;19.58;95255.63;5075238;28;20146;-80
2022/05/08 10:35:03;;;;;;;3.50;2.45;;;;;;;20.31;19.74;95248.03;5074171;28;20077;-80
2022/05/08 10:37:29;;;;;;;5.55;1.90;;;;;;;20.39;18.75;95258.00;5069746;28;20037;-80
2022/05/08 10:39:55;;;;;;;3.28;2.22;;;;;;;20.53;18.67;95238.84;5053459;28;20052;-80
2022/05/08 10:42:33;;;;;;;3.30;2.45;;;;;;;20.44;17.95;95256.38;5061638;28;20037;-80
2022/05/08 10:44:59;;;;;;;10.18;1.88;;;;;;;20.45;18.00;95242.88;5070911;28;20056;-80
2022/05/08 10:47:37;;;;;;;8.63;2.13;;;;;;;20.54;18.30;95256.28;5068477;28;20041;-80
2022/05/08 10:50:05;;;;;;;4.53;1.80;;;;;;;20.54;16.66;95235.13;5068946;28;20110;-80
2022/05/08 10:52:31;;;;;;;6.55;1.88;;;;;;;20.59;17.52;95237.69;5068553;28;20045;-82
2022/05/08 10:54:59;;;;;;;3.15;2.00;;;;;;;20.79;17.27;95237.44;5069943;28;20029;-78
2022/05/08 10:57:35;;;;;;;5.68;2.25;;;;;;;20.72;18.12;95233.56;5065016;28;20041;-81
2022/05/08 11:00:02;;;;;;;1.95;1.65;;;;;;;20.80;17.43;95227.63;5065316;28;20048;-82
2022/05/08 11:02:48;;;;;;;16.67;2.20;;;;;;;20.94;17.76;95217.91;5056950;28;20044;-82
2022/05/08 11:05:21;;;;;;;3.20;2.05;;;;;;;21.05;18.31;95223.84;5064847;28;20071;-82
2022/05/08 11:07:56;;;;;;;6.72;2.28;;;;;;;21.00;17.91;95221.28;5045653;28;20033;-78
2022/05/08 11:10:22;;;;;;;7.68;1.90;;;;;;;20.91;18.49;95224.56;5071790;28;20059;-80
2022/05/08 11:13:01;;;;;;;2.05;1.88;;;;;;;20.94;18.27;95216.06;5067380;28;20392;-79
2022/05/08 11:15:30;;;;;;;5.47;1.98;;;;;;;20.74;18.52;95224.28;5053340;28;20028;-76
2022/05/08 11:18:05;;;;;;;5.78;1.65;;;;;;;20.73;18.80;95214.78;5059376;28;20041;-75
2022/05/08 11:20:36;;;;;;;4.20;2.40;;;;;;;20.85;19.83;95212.50;5060439;28;20933;-74
2022/05/08 11:23:01;;;;;;;3.65;2.13;;;;;;;20.69;19.59;95213.78;5059752;28;20041;-76
2022/05/08 11:25:27;;;;;;;5.03;2.22;;;;;;;20.70;20.17;95217.22;5058012;28;20025;-76
2022/05/08 11:27:53;;;;;;;9.00;2.45;;;;;;;20.75;20.63;95209.22;5040877;28;20049;-74
2022/05/08 11:30:35;;;;;;;3.10;2.70;;;;;;;20.77;21.22;95210.50;5058014;28;20044;-75
2022/05/08 11:36:09;;;;;;;6.13;2.30;;;;;;;20.77;20.03;95197.28;5063271;28;20011;-76
2022/05/08 11:38:44;;;;;;;7.25;2.50;;;;;;;20.78;19.80;95201.50;5044599;28;20073;-76
2022/05/08 11:41:14;;;;;;;2.33;2.08;;;;;;;20.67;19.10;95184.22;5061242;28;20043;-76
2022/05/08 11:43:46;;;;;;;3.08;1.85;;;;;;;20.80;19.41;95186.13;5059392;28;20033;-75
2022/05/08 11:46:16;;;;;;;6.03;2.15;;;;;;;20.94;19.71;95192.28;5027351;28;20040;-76
2022/05/08 11:48:49;;;;;;;3.20;2.15;;;;;;;20.97;19.32;95190.91;5058781;28;20137;-76
2022/05/08 11:51:21;;;;;;;7.00;2.10;;;;;;;21.01;19.98;95185.84;5058703;28;20116;-76
2022/05/08 11:53:46;;;;;;;2.80;2.55;;;;;;;21.03;19.03;95210.13;5060325;28;20097;-76
2022/05/08 11:56:28;;;;;;;2.90;2.40;;;;;;;20.82;19.13;95193.78;5061312;28;20530;-77
2022/05/08 11:58:58;;;;;;;6.45;2.63;;;;;;;20.70;18.81;95181.00;5060676;28;21024;-76